KHFF/HFF METAR and TAF weather

Enter ICAO airport designator
Station Type Date Time Source
KHFF METAR 2020/06/01 15:56 UTC NOAA

KHFF 011556Z AUTO 03008KT 10SM BKN036 22/12 A3029 RMK AO2 SLP271 T02150123 $


Station Type Date Time Source
KHFF Decoded METAR 2020/06/01 15:56 UTC NOAA

Mackall U. S. Army Airfield, NC, United States (KHFF) 35-02N 079-30W
Jun 01, 2020 - 11:56 AM EDT / 2020.06.01 1556 UTC
Wind: from the NNE (030 degrees) at 9 MPH (8 KT):0
Visibility: 10 mile(s):0
Sky conditions: mostly cloudy
Temperature: 70.7 F (21.5 C)
Dew Point: 54.1 F (12.3 C)
Relative Humidity: 55%
Pressure (altimeter): 30.29 in. Hg (1025 hPa)
ob: KHFF 011556Z AUTO 03008KT 10SM BKN036 22/12 A3029 RMK AO2 SLP271 T02150123
cycle: 16

Station Type Date Time Source
KHFF TAF UTC NOAA

Error!

Example: see airport list